»·PEaware :: N22G KLAS-KSAN

N22G :: KLAS-KSAN

FLIGHT INFORMATION

Flight Status: Arrived
Operator: Privately registered:
United States
More flights under this callsign
Pilot: Ryan L. (28399)
Aircraft: CESSNA 510 CITATION MUSTANG
(C510)
More flights by this aircraft type
Origin: KLAS McCarran Intl
United States
Destination: KSAN San Diego Intl-Lindbergh
United States
More flights between these airports :: More routes between these airports
Route: +BOACH8 LVELL LUCKI1
File this flight plan on PilotEdge
Remarks:
Altitude:
(Current/Filed)
20,000ft
Speed:
(Current/Filed)
285kts
Departed: 16-May-20 11:19 AM
Arrived: 16-May-20 12:13 PM
Distance/Time
Traveled:
224nm/0:54
Distance/Time
To Go:
Arrived

Flight Plot

Page will automatically refresh every two minutes.

Flight plan parsing failed; only flown route is shown


Map Options




Map Legend


Flown Route
Filed Route
Departure Airport
Arrival Airport
Navaid (VOR, NDB)
Fix

Horizontal Profiles

Position Reports

Time Latitude Longitude Heading Altitude Ground
Speed
16-May-20 10:59 36.083213 -115.169985 89 2164ft 0kts
16-May-20 11:00 36.083213 -115.169985 89 2164ft 0kts
16-May-20 11:01 36.083213 -115.169985 89 2164ft 0kts
16-May-20 11:02 36.083213 -115.169985 89 2164ft 0kts
16-May-20 11:03 36.083213 -115.169985 89 2164ft 0kts
16-May-20 11:04 36.083213 -115.169985 89 2164ft 0kts
16-May-20 11:05 36.083213 -115.169985 89 2164ft 0kts
16-May-20 11:06 36.083213 -115.169985 89 2164ft 0kts
16-May-20 11:07 36.083213 -115.169985 89 2164ft 0kts
16-May-20 11:08 36.083213 -115.169985 89 2164ft 0kts
16-May-20 11:09 36.083213 -115.169985 89 2164ft 0kts
16-May-20 11:10 36.083213 -115.169985 89 2164ft 0kts
16-May-20 11:11 36.083213 -115.169985 89 2164ft 0kts
16-May-20 11:12 36.083213 -115.169985 89 2164ft 0kts
16-May-20 11:13 36.084959 -115.168070 42 2156ft 20kts
16-May-20 11:14 36.090695 -115.163977 24 2127ft 23kts
16-May-20 11:15 36.096053 -115.160927 24 2103ft 12kts
16-May-20 11:16 36.099309 -115.158720 56 2091ft 6kts
16-May-20 11:17 36.099814 -115.157724 74 2087ft 1kts
16-May-20 11:18 36.086168 -115.164023 202 2329ft 143kts
16-May-20 11:19 36.037901 -115.191689 204 5245ft 222kts
16-May-20 11:20 35.995460 -115.247888 240 6027ft 233kts
16-May-20 11:21 35.953456 -115.303828 183 7584ft 237kts
16-May-20 11:22 35.885164 -115.311841 183 11053ft 253kts
16-May-20 11:23 35.816559 -115.310246 174 14673ft 247kts
16-May-20 11:24 35.750185 -115.302604 175 18134ft 238kts
16-May-20 11:25 35.676051 -115.294715 180 19046ft 309kts
16-May-20 11:26 35.583656 -115.298487 182 19041ft 349kts
16-May-20 11:27 35.487173 -115.302142 183 20038ft 341kts
16-May-20 11:28 35.389524 -115.306072 183 20019ft 359kts
16-May-20 11:29 35.289119 -115.310065 183 19998ft 364kts
16-May-20 11:30 35.187431 -115.314071 182 19964ft 366kts
16-May-20 11:31 35.085869 -115.318056 182 19939ft 366kts
16-May-20 11:32 34.984185 -115.322009 183 19923ft 367kts
16-May-20 11:33 34.881841 -115.326001 183 19927ft 370kts
16-May-20 11:34 34.778775 -115.331926 195 19896ft 372kts
16-May-20 11:35 34.681379 -115.374671 200 19939ft 372kts
16-May-20 11:36 34.584230 -115.417070 200 20006ft 371kts
16-May-20 11:37 34.487377 -115.459300 200 20045ft 371kts
16-May-20 11:38 34.390228 -115.501575 200 20044ft 372kts
16-May-20 11:39 34.297007 -115.550744 208 20033ft 351kts
16-May-20 11:40 34.218005 -115.607557 216 20041ft 325kts
16-May-20 11:41 34.135790 -115.649921 202 20046ft 328kts
16-May-20 11:42 34.049807 -115.690621 201 20033ft 348kts
16-May-20 11:43 33.956838 -115.734442 201 19932ft 366kts
16-May-20 11:44 33.861520 -115.780514 202 19883ft 371kts
16-May-20 11:45 33.765563 -115.827346 201 19882ft 372kts
16-May-20 11:46 33.669220 -115.872496 201 19882ft 370kts
16-May-20 11:47 33.576585 -115.915773 201 19879ft 349kts
16-May-20 11:48 33.511632 -115.952588 225 19854ft 344kts
16-May-20 11:49 33.511632 -115.952588 225 19854ft 344kts
16-May-20 11:50 33.511632 -115.952588 225 19854ft 344kts
16-May-20 11:51 33.511632 -115.952588 225 19854ft 344kts
16-May-20 11:52 33.481849 -116.002515 234 19880ft 342kts
16-May-20 11:53 33.427437 -116.095730 234 19880ft 341kts
16-May-20 11:54 33.373399 -116.188471 234 19880ft 340kts
16-May-20 11:55 33.307852 -116.267915 204 19040ft 347kts
16-May-20 11:56 33.221989 -116.317748 206 17058ft 340kts
16-May-20 11:57 33.138875 -116.366523 205 14339ft 322kts
16-May-20 11:58 33.060006 -116.412561 205 11977ft 315kts
16-May-20 11:59 32.985266 -116.464794 219 11986ft 310kts
16-May-20 12:00 32.922358 -116.528133 219 9762ft 285kts
16-May-20 12:01 32.863648 -116.587307 220 8681ft 270kts
16-May-20 12:02 32.807866 -116.643417 220 7974ft 258kts
16-May-20 12:03 32.758445 -116.710299 240 7047ft 261kts
16-May-20 12:04 32.724070 -116.783034 240 6084ft 244kts
16-May-20 12:05 32.696160 -116.854394 249 5938ft 239kts
16-May-20 12:06 32.695337 -116.928652 280 4973ft 208kts
16-May-20 12:07 32.690301 -116.991170 262 4869ft 182kts
16-May-20 12:08 32.695476 -117.044959 291 3788ft 162kts
16-May-20 12:09 32.710424 -117.093568 285 2502ft 147kts
16-May-20 12:10 32.720441 -117.135198 286 1339ft 117kts
16-May-20 12:11 32.729475 -117.172528 284 203ft 114kts
16-May-20 12:12 32.734514 -117.190865 19 22ft 7kts
16-May-20 12:13 32.734834 -117.190110 96 22ft 4kts
16-May-20 12:14 32.733123 -117.183160 106 22ft 27kts
16-May-20 12:15 32.733970 -117.178867 144 22ft 2kts

Navigation Log

Ident Type
Flight plan parsing failed, navigation log unavailable